Brunswick Golden Isles Airport
KBQK : now visible

Airfield :











YOU CAN JOIN US ON...

 
LOGIN :

Register | Disclaimer

   EN    FR    IT 

 









Legend :    VFR   Marginal VFR   IFR   Intensive IFR   Very Intensive IFR
Visi :
Ceiling :
>= 8 km
>= 3000ft
5 to 8 km
1000 to 3000 ft
1500m to 5 km
500 to 1000 ft
800 to 1500m
200 to 500 ft
< 800m
< 200 ft
Symbols :   Thunderstorms  Fog  Heavy snow  Heavy precipitations  Wind > 20 kt







- Airport Elevation : 26 ft
- IATA code : BQK


KBQK - Brunswick Golden Isles

CURRENT METAR :
  • 230935Z AUTO 00000KT 1/2SM FG VV005 12/ A3012 RMK AO2 T0118////

EXPIRED METARs :
  • 230915Z AUTO 00000KT 3SM BR CLR 11/ A3013 RMK AO2 VIS 1V5 T0113////
  • 230855Z AUTO 00000KT 1 1/2SM BR VV007 12/ A3012 RMK AO2 T0116////
  • 230835Z AUTO 08003KT 2 1/2SM BR CLR 12/ A3012 RMK AO2 T0116////
  • 230815Z AUTO 00000KT 10SM CLR 11/ A3013 RMK AO2 T0112////
  • 230755Z AUTO 00000KT 1 1/2SM BR VV007 11/ A3012 RMK AO2 VIS 3/4V5 T0111////
  • 230735Z AUTO 00000KT 3SM BR CLR 12/ A3013 RMK AO2 T0124////
  • 230715Z AUTO 00000KT 3 1/2SM BR CLR 13/12 A3013 RMK AO2 T0128////
  • 230655Z AUTO 00000KT 10SM CLR 12/11 A3014 RMK AO2 T01160114

TAF N/A
KZJX FIR / North America



MET'MAP, your aeronautical weather chart ! - Copyright ORBIFLY December 2007 - Disclaimer

ORBIFLY MET'MAP TEAM :

Programming & Development : Alexandra Zaïnal
Concept & Development : Baudouin d'Aumeries
Co-Development & Prog : Marc-Olivier Méhu
Technical & hardware support : Manuel Goepfert

Contact : metmap@orbifly.com




SOURCES & CREDITS :

   NOAA       Earth
Advisory